ADDS METAR Data INFO
IDs: Format: Raw Decoded Include TAF

Data at: 2101 UTC 19 Jul 2018

KOXB 192053Z AUTO VRB04KT 10SM CLR 27/15 A3008 RMK AO2 SLP186 T02670150 56004
KOXB 191953Z AUTO 12007KT 10SM CLR 27/18 A3008 RMK AO2 SLP186 T02670178
KOXB 191853Z AUTO 10007KT 10SM CLR 26/19 A3009 RMK AO2 SLP189 T02610194
KOXB 191753Z AUTO 11006KT 10SM CLR 26/21 A3009 RMK AO2 SLP190 T02560206 10261 20233 58003
KOXB 191653Z AUTO 09007KT 10SM CLR 26/19 A3010 RMK AO2 SLP192 T02560194
KOXB 191553Z AUTO 07005KT 9SM CLR 26/18 A3010 RMK AO2 SLP194 T02610178
KOXB 191453Z AUTO 09006KT 10SM CLR 26/18 A3010 RMK AO2 SLP193 T02610178 51015
KOXB 191353Z AUTO 04005KT 10SM CLR 26/17 A3009 RMK AO2 SLP188 T02610167
KOXB 191253Z AUTO VRB05KT 10SM CLR 24/18 A3008 RMK AO2 SLP184 T02440178
KOXB 191153Z AUTO 02007KT 10SM CLR 23/17 A3006 RMK AO2 SLP178 T02330172 10233 20183 53016
KOXB 191053Z AUTO 03005KT 10SM CLR 22/17 A3004 RMK AO2 SLP172 T02170172
KOXB 190953Z AUTO 36005KT 6SM BR CLR 19/18 A3002 RMK AO2 SLP166 T01890183
KOXB 190853Z AUTO 34004KT 8SM CLR 19/19 A3001 RMK AO2 SLP163 T01890189 51004
KOXB 190753Z AUTO 00000KT 9SM FEW090 19/19 A3001 RMK AO2 SLP161 T01890189
KOXB 190653Z AUTO 00000KT 10SM FEW090 19/19 A3001 RMK AO2 SLP160 T01940189
KOXB 190553Z AUTO 00000KT 10SM SCT090 21/19 A3000 RMK AO2 SLP159 T02060194 10233 20206 53010
KOXB 190453Z AUTO 00000KT 10SM OVC070 21/20 A2999 RMK AO2 SLP154 T02110200 403060211
KOXB 190353Z AUTO 22003KT 10SM FEW070 OVC090 22/21 A2998 RMK AO2 SLP151 T02220206
KOXB 190253Z AUTO 00000KT 10SM FEW060 SCT075 23/20 A2997 RMK AO2 SLP149 T02280200 51011
KOXB 190153Z AUTO 19003KT 10SM CLR 23/20 A2997 RMK AO2 SLP146 T02330200
KOXB 190053Z AUTO 18003KT 10SM CLR 23/21 A2996 RMK AO2 SLP143 T02330206
KOXB 182353Z AUTO 12004KT 10SM CLR 23/21 A2994 RMK AO2 SLP138 T02330206 10306 20233 53012
KOXB 182253Z AUTO 11006KT 10SM CLR 26/20 A2993 RMK AO2 SLP134 T02560200
KOXB 182153Z AUTO 09004KT 10SM BKN075 26/19 A2991 RMK AO2 SLP129 T02610194
KOXB 182053Z AUTO 08009KT 10SM FEW075 27/18 A2990 RMK AO2 SLP126 T02670178 58002
KOXB 181953Z AUTO 08008KT 10SM FEW060 SCT080 28/17 A2991 RMK AO2 SLP128 T02780172
KOXB 181853Z AUTO 06008KT 10SM FEW060 SCT075 28/19 A2992 RMK AO2 SLP130 T02780189
KOXB 181753Z AUTO 32007KT 290V350 10SM SCT055 BKN070 30/17 A2991 RMK AO2 SLP128 T03000172 10300 20233 56002
KOXB 181653Z AUTO VRB06KT 10SM CLR 29/17 A2991 RMK AO2 SLP129 T02890167
KOXB 181553Z AUTO 36009KT 10SM CLR 28/18 A2991 RMK AO2 SLP128 T02830178
KOXB 181453Z AUTO 32006KT 10SM FEW070 26/18 A2992 RMK AO2 SLP130 T02610178 50006
KOXB 181353Z AUTO 35009KT 10SM CLR 26/18 A2992 RMK AO2 SLP132 T02560183
KOXB 181253Z AUTO 01007KT 10SM CLR 24/18 A2993 RMK AO2 SLP133 T02390178
KOXB 181220Z AUTO 01008KT 10SM FEW002 24/19 A2991 RMK AO2 T02390189
KOXB 181153Z AUTO 01008KT 10SM CLR 23/21 A2990 RMK AO2 SLP123 70029 T02330206 10233 20217 53019
KOXB 181053Z AUTO 01008KT 10SM CLR 22/21 A2987 RMK AO2 SLP113 T02220206
KOXB 181022Z AUTO 01010KT 7SM FEW010 SCT014 23/22 A2985 RMK AO2 T02280217
KOXB 180953Z AUTO 35007KT 8SM BKN012 23/22 A2985 RMK AO2 SLP108 T02280222
KOXB 180908Z AUTO 33006KT 8SM SCT008 SCT030 22/22 A2984 RMK AO2 T02220217